sensor_id;sensor_type;location;lat;lon;timestamp;P1;durP1;ratioP1;P2;durP2;ratioP2
2598;SDS011;1309;48.810;8.954;2023-06-10T00:03:50;13.47;;;9.83;;
2598;SDS011;1309;48.810;8.954;2023-06-10T00:06:19;12.10;;;10.00;;
2598;SDS011;1309;48.810;8.954;2023-06-10T00:09:09;12.53;;;8.97;;
2598;SDS011;1309;48.810;8.954;2023-06-10T00:11:41;11.70;;;9.67;;
2598;SDS011;1309;48.810;8.954;2023-06-10T00:14:09;11.70;;;8.60;;
2598;SDS011;1309;48.810;8.954;2023-06-10T00:16:37;13.43;;;9.90;;
2598;SDS011;1309;48.810;8.954;2023-06-10T00:19:06;12.63;;;9.50;;
2598;SDS011;1309;48.810;8.954;2023-06-10T00:21:40;12.83;;;8.80;;
2598;SDS011;1309;48.810;8.954;2023-06-10T00:24:10;11.30;;;9.00;;
2598;SDS011;1309;48.810;8.954;2023-06-10T00:26:41;11.50;;;8.70;;
2598;SDS011;1309;48.810;8.954;2023-06-10T00:29:13;12.43;;;9.63;;
2598;SDS011;1309;48.810;8.954;2023-06-10T00:31:41;15.00;;;10.17;;
2598;SDS011;1309;48.810;8.954;2023-06-10T00:34:20;12.50;;;9.77;;
2598;SDS011;1309;48.810;8.954;2023-06-10T00:36:49;12.30;;;9.30;;
2598;SDS011;1309;48.810;8.954;2023-06-10T00:39:22;10.03;;;8.17;;
2598;SDS011;1309;48.810;8.954;2023-06-10T00:42:15;13.07;;;9.40;;
2598;SDS011;1309;48.810;8.954;2023-06-10T00:44:43;12.30;;;9.20;;
2598;SDS011;1309;48.810;8.954;2023-06-10T00:47:13;11.60;;;8.73;;
2598;SDS011;1309;48.810;8.954;2023-06-10T00:49:43;12.23;;;8.93;;
2598;SDS011;1309;48.810;8.954;2023-06-10T00:52:12;11.93;;;10.00;;
2598;SDS011;1309;48.810;8.954;2023-06-10T00:54:44;11.90;;;9.20;;
2598;SDS011;1309;48.810;8.954;2023-06-10T00:57:16;12.17;;;9.23;;
2598;SDS011;1309;48.810;8.954;2023-06-10T00:59:46;10.90;;;8.00;;
2598;SDS011;1309;48.810;8.954;2023-06-10T01:02:15;13.60;;;9.10;;
2598;SDS011;1309;48.810;8.954;2023-06-10T01:04:44;12.23;;;9.10;;
2598;SDS011;1309;48.810;8.954;2023-06-10T01:07:17;14.63;;;9.87;;
2598;SDS011;1309;48.810;8.954;2023-06-10T01:09:50;12.63;;;9.13;;
2598;SDS011;1309;48.810;8.954;2023-06-10T01:12:29;14.20;;;8.47;;
2598;SDS011;1309;48.810;8.954;2023-06-10T01:14:59;13.60;;;8.63;;
2598;SDS011;1309;48.810;8.954;2023-06-10T01:17:37;13.23;;;9.10;;
2598;SDS011;1309;48.810;8.954;2023-06-10T01:20:21;11.07;;;8.60;;
2598;SDS011;1309;48.810;8.954;2023-06-10T01:22:54;12.90;;;9.37;;
2598;SDS011;1309;48.810;8.954;2023-06-10T01:25:24;12.50;;;8.23;;
2598;SDS011;1309;48.810;8.954;2023-06-10T01:27:57;10.77;;;8.30;;
2598;SDS011;1309;48.810;8.954;2023-06-10T01:30:30;12.50;;;9.17;;
2598;SDS011;1309;48.810;8.954;2023-06-10T01:33:05;10.20;;;8.60;;
2598;SDS011;1309;48.810;8.954;2023-06-10T01:35:35;12.33;;;8.80;;
2598;SDS011;1309;48.810;8.954;2023-06-10T01:38:09;11.87;;;8.27;;
2598;SDS011;1309;48.810;8.954;2023-06-10T01:40:41;11.17;;;7.77;;
2598;SDS011;1309;48.810;8.954;2023-06-10T01:43:09;12.10;;;8.80;;
2598;SDS011;1309;48.810;8.954;2023-06-10T01:45:37;10.50;;;7.60;;
2598;SDS011;1309;48.810;8.954;2023-06-10T01:48:08;12.17;;;8.60;;
2598;SDS011;1309;48.810;8.954;2023-06-10T01:50:36;10.07;;;7.70;;
2598;SDS011;1309;48.810;8.954;2023-06-10T01:53:04;11.30;;;7.73;;
2598;SDS011;1309;48.810;8.954;2023-06-10T01:55:34;11.00;;;9.00;;
2598;SDS011;1309;48.810;8.954;2023-06-10T01:58:04;10.17;;;7.20;;
2598;SDS011;1309;48.810;8.954;2023-06-10T02:00:35;11.03;;;7.67;;
2598;SDS011;1309;48.810;8.954;2023-06-10T02:03:07;10.30;;;7.57;;
2598;SDS011;1309;48.810;8.954;2023-06-10T02:05:40;10.20;;;7.90;;
2598;SDS011;1309;48.810;8.954;2023-06-10T02:08:08;11.00;;;7.97;;
2598;SDS011;1309;48.810;8.954;2023-06-10T02:10:38;10.50;;;8.20;;
2598;SDS011;1309;48.810;8.954;2023-06-10T02:13:06;10.03;;;7.17;;
2598;SDS011;1309;48.810;8.954;2023-06-10T02:15:35;10.20;;;8.23;;
2598;SDS011;1309;48.810;8.954;2023-06-10T02:18:07;12.60;;;8.07;;
2598;SDS011;1309;48.810;8.954;2023-06-10T02:20:36;12.13;;;8.23;;
2598;SDS011;1309;48.810;8.954;2023-06-10T02:23:05;11.40;;;9.10;;
2598;SDS011;1309;48.810;8.954;2023-06-10T02:25:37;10.53;;;8.23;;
2598;SDS011;1309;48.810;8.954;2023-06-10T02:28:09;10.90;;;7.60;;
2598;SDS011;1309;48.810;8.954;2023-06-10T02:30:38;11.73;;;7.40;;
2598;SDS011;1309;48.810;8.954;2023-06-10T02:33:07;10.67;;;7.47;;
2598;SDS011;1309;48.810;8.954;2023-06-10T02:35:40;10.70;;;7.80;;
2598;SDS011;1309;48.810;8.954;2023-06-10T02:38:10;12.37;;;7.33;;
2598;SDS011;1309;48.810;8.954;2023-06-10T02:40:41;11.50;;;6.83;;
2598;SDS011;1309;48.810;8.954;2023-06-10T02:43:09;11.17;;;8.27;;
2598;SDS011;1309;48.810;8.954;2023-06-10T02:45:41;12.17;;;8.47;;
2598;SDS011;1309;48.810;8.954;2023-06-10T02:48:09;10.80;;;6.90;;
2598;SDS011;1309;48.810;8.954;2023-06-10T02:50:37;11.40;;;7.20;;
2598;SDS011;1309;48.810;8.954;2023-06-10T02:53:06;9.03;;;7.33;;
2598;SDS011;1309;48.810;8.954;2023-06-10T02:55:34;10.73;;;7.90;;
2598;SDS011;1309;48.810;8.954;2023-06-10T02:58:05;9.00;;;7.20;;
2598;SDS011;1309;48.810;8.954;2023-06-10T03:00:33;10.93;;;7.00;;
2598;SDS011;1309;48.810;8.954;2023-06-10T03:03:02;9.33;;;7.57;;
2598;SDS011;1309;48.810;8.954;2023-06-10T03:05:34;9.00;;;6.70;;
2598;SDS011;1309;48.810;8.954;2023-06-10T03:08:04;9.50;;;6.70;;
2598;SDS011;1309;48.810;8.954;2023-06-10T03:10:32;7.63;;;6.70;;
2598;SDS011;1309;48.810;8.954;2023-06-10T03:13:07;9.47;;;6.97;;
2598;SDS011;1309;48.810;8.954;2023-06-10T03:15:36;8.67;;;6.33;;
2598;SDS011;1309;48.810;8.954;2023-06-10T03:18:07;9.47;;;6.17;;
2598;SDS011;1309;48.810;8.954;2023-06-10T03:20:35;11.20;;;6.87;;
2598;SDS011;1309;48.810;8.954;2023-06-10T03:23:04;7.17;;;5.73;;
2598;SDS011;1309;48.810;8.954;2023-06-10T03:25:33;9.33;;;7.20;;
2598;SDS011;1309;48.810;8.954;2023-06-10T03:28:04;9.17;;;7.10;;
2598;SDS011;1309;48.810;8.954;2023-06-10T03:30:34;8.07;;;6.30;;
2598;SDS011;1309;48.810;8.954;2023-06-10T03:33:04;11.13;;;7.00;;
2598;SDS011;1309;48.810;8.954;2023-06-10T03:35:35;11.40;;;6.83;;
2598;SDS011;1309;48.810;8.954;2023-06-10T03:38:03;9.87;;;6.60;;
2598;SDS011;1309;48.810;8.954;2023-06-10T03:40:31;12.07;;;6.93;;
2598;SDS011;1309;48.810;8.954;2023-06-10T03:43:01;9.27;;;6.03;;
2598;SDS011;1309;48.810;8.954;2023-06-10T03:45:34;9.87;;;6.90;;
2598;SDS011;1309;48.810;8.954;2023-06-10T03:48:02;10.43;;;6.57;;
2598;SDS011;1309;48.810;8.954;2023-06-10T03:50:32;8.07;;;5.70;;
2598;SDS011;1309;48.810;8.954;2023-06-10T03:53:02;10.30;;;6.33;;
2598;SDS011;1309;48.810;8.954;2023-06-10T03:55:34;19.03;;;7.50;;
2598;SDS011;1309;48.810;8.954;2023-06-10T03:58:02;10.90;;;6.90;;
2598;SDS011;1309;48.810;8.954;2023-06-10T04:00:31;9.63;;;7.37;;
2598;SDS011;1309;48.810;8.954;2023-06-10T04:03:10;13.83;;;7.70;;
2598;SDS011;1309;48.810;8.954;2023-06-10T04:05:41;10.27;;;7.20;;
2598;SDS011;1309;48.810;8.954;2023-06-10T04:08:10;9.60;;;6.63;;
2598;SDS011;1309;48.810;8.954;2023-06-10T04:10:38;10.60;;;7.27;;
2598;SDS011;1309;48.810;8.954;2023-06-10T04:13:06;13.87;;;7.47;;
2598;SDS011;1309;48.810;8.954;2023-06-10T04:15:39;10.17;;;6.47;;
2598;SDS011;1309;48.810;8.954;2023-06-10T04:18:10;8.13;;;6.50;;
2598;SDS011;1309;48.810;8.954;2023-06-10T04:20:38;9.63;;;6.83;;
2598;SDS011;1309;48.810;8.954;2023-06-10T04:23:08;11.73;;;7.30;;
2598;SDS011;1309;48.810;8.954;2023-06-10T04:25:37;10.47;;;7.43;;
2598;SDS011;1309;48.810;8.954;2023-06-10T04:28:07;9.10;;;6.80;;
2598;SDS011;1309;48.810;8.954;2023-06-10T04:30:39;9.87;;;7.20;;
2598;SDS011;1309;48.810;8.954;2023-06-10T04:33:09;11.00;;;6.40;;
2598;SDS011;1309;48.810;8.954;2023-06-10T04:35:42;8.00;;;6.10;;
2598;SDS011;1309;48.810;8.954;2023-06-10T04:38:10;8.97;;;6.57;;
2598;SDS011;1309;48.810;8.954;2023-06-10T04:40:39;8.50;;;6.40;;
2598;SDS011;1309;48.810;8.954;2023-06-10T04:43:08;10.23;;;6.63;;
2598;SDS011;1309;48.810;8.954;2023-06-10T04:45:36;9.30;;;6.60;;
2598;SDS011;1309;48.810;8.954;2023-06-10T04:48:04;10.23;;;6.90;;
2598;SDS011;1309;48.810;8.954;2023-06-10T04:50:39;9.23;;;6.50;;
2598;SDS011;1309;48.810;8.954;2023-06-10T04:53:10;7.77;;;6.37;;
2598;SDS011;1309;48.810;8.954;2023-06-10T04:55:48;8.47;;;6.23;;
2598;SDS011;1309;48.810;8.954;2023-06-10T04:58:16;10.53;;;6.83;;
2598;SDS011;1309;48.810;8.954;2023-06-10T05:00:47;9.73;;;6.57;;
2598;SDS011;1309;48.810;8.954;2023-06-10T05:03:18;7.80;;;6.60;;
2598;SDS011;1309;48.810;8.954;2023-06-10T05:05:50;7.50;;;6.27;;
2598;SDS011;1309;48.810;8.954;2023-06-10T05:08:19;9.90;;;6.70;;
2598;SDS011;1309;48.810;8.954;2023-06-10T05:10:47;11.10;;;6.43;;
2598;SDS011;1309;48.810;8.954;2023-06-10T05:13:18;9.60;;;6.67;;
2598;SDS011;1309;48.810;8.954;2023-06-10T05:15:47;13.03;;;6.60;;
2598;SDS011;1309;48.810;8.954;2023-06-10T05:18:15;9.47;;;6.60;;
2598;SDS011;1309;48.810;8.954;2023-06-10T05:20:47;9.50;;;6.57;;
2598;SDS011;1309;48.810;8.954;2023-06-10T05:23:18;8.47;;;6.20;;
2598;SDS011;1309;48.810;8.954;2023-06-10T05:25:45;9.47;;;6.63;;
2598;SDS011;1309;48.810;8.954;2023-06-10T05:28:15;8.77;;;5.50;;
2598;SDS011;1309;48.810;8.954;2023-06-10T05:30:48;8.73;;;6.17;;
2598;SDS011;1309;48.810;8.954;2023-06-10T05:33:16;8.97;;;5.80;;
2598;SDS011;1309;48.810;8.954;2023-06-10T05:35:44;8.93;;;6.80;;
2598;SDS011;1309;48.810;8.954;2023-06-10T05:38:12;10.10;;;7.40;;
2598;SDS011;1309;48.810;8.954;2023-06-10T05:40:45;9.70;;;6.67;;
2598;SDS011;1309;48.810;8.954;2023-06-10T05:43:14;10.43;;;6.33;;
2598;SDS011;1309;48.810;8.954;2023-06-10T05:45:43;9.70;;;6.30;;
2598;SDS011;1309;48.810;8.954;2023-06-10T05:48:11;9.40;;;6.03;;
2598;SDS011;1309;48.810;8.954;2023-06-10T05:50:39;11.80;;;7.57;;
2598;SDS011;1309;48.810;8.954;2023-06-10T05:53:11;11.67;;;6.87;;
2598;SDS011;1309;48.810;8.954;2023-06-10T05:55:42;13.53;;;7.20;;
2598;SDS011;1309;48.810;8.954;2023-06-10T05:58:14;10.00;;;6.67;;
2598;SDS011;1309;48.810;8.954;2023-06-10T06:00:41;9.77;;;7.47;;
2598;SDS011;1309;48.810;8.954;2023-06-10T06:03:12;10.10;;;6.70;;
2598;SDS011;1309;48.810;8.954;2023-06-10T06:05:44;8.17;;;6.40;;
2598;SDS011;1309;48.810;8.954;2023-06-10T06:08:15;9.80;;;6.27;;
2598;SDS011;1309;48.810;8.954;2023-06-10T06:10:44;9.70;;;6.53;;
2598;SDS011;1309;48.810;8.954;2023-06-10T06:13:15;9.37;;;5.90;;
2598;SDS011;1309;48.810;8.954;2023-06-10T06:15:43;11.30;;;6.57;;
2598;SDS011;1309;48.810;8.954;2023-06-10T06:18:14;11.50;;;6.37;;
2598;SDS011;1309;48.810;8.954;2023-06-10T06:20:44;10.20;;;6.10;;
2598;SDS011;1309;48.810;8.954;2023-06-10T06:23:13;9.83;;;6.57;;
2598;SDS011;1309;48.810;8.954;2023-06-10T06:25:44;8.57;;;6.10;;
2598;SDS011;1309;48.810;8.954;2023-06-10T06:28:19;9.33;;;6.90;;
2598;SDS011;1309;48.810;8.954;2023-06-10T06:30:55;11.33;;;7.60;;
2598;SDS011;1309;48.810;8.954;2023-06-10T06:33:32;10.67;;;6.97;;
2598;SDS011;1309;48.810;8.954;2023-06-10T06:36:00;9.67;;;7.13;;
2598;SDS011;1309;48.810;8.954;2023-06-10T06:38:30;9.77;;;6.40;;
2598;SDS011;1309;48.810;8.954;2023-06-10T06:40:58;12.70;;;7.40;;
2598;SDS011;1309;48.810;8.954;2023-06-10T06:43:30;11.80;;;6.70;;
2598;SDS011;1309;48.810;8.954;2023-06-10T06:46:01;8.83;;;6.60;;
2598;SDS011;1309;48.810;8.954;2023-06-10T06:48:32;10.67;;;7.07;;
2598;SDS011;1309;48.810;8.954;2023-06-10T06:51:00;9.20;;;7.07;;
2598;SDS011;1309;48.810;8.954;2023-06-10T06:53:31;9.20;;;6.60;;
2598;SDS011;1309;48.810;8.954;2023-06-10T06:56:07;12.10;;;6.53;;
2598;SDS011;1309;48.810;8.954;2023-06-10T06:58:37;10.63;;;7.00;;
2598;SDS011;1309;48.810;8.954;2023-06-10T07:01:05;9.67;;;6.87;;
2598;SDS011;1309;48.810;8.954;2023-06-10T07:03:34;11.90;;;7.20;;
2598;SDS011;1309;48.810;8.954;2023-06-10T07:06:07;9.50;;;7.10;;
2598;SDS011;1309;48.810;8.954;2023-06-10T07:08:34;9.43;;;6.93;;
2598;SDS011;1309;48.810;8.954;2023-06-10T07:11:02;12.00;;;8.27;;
2598;SDS011;1309;48.810;8.954;2023-06-10T07:13:30;8.87;;;7.13;;
2598;SDS011;1309;48.810;8.954;2023-06-10T07:16:00;14.73;;;7.27;;
2598;SDS011;1309;48.810;8.954;2023-06-10T07:18:30;13.23;;;8.40;;
2598;SDS011;1309;48.810;8.954;2023-06-10T07:20:58;12.07;;;6.80;;
2598;SDS011;1309;48.810;8.954;2023-06-10T07:23:28;10.63;;;6.77;;
2598;SDS011;1309;48.810;8.954;2023-06-10T07:25:57;10.43;;;6.50;;
2598;SDS011;1309;48.810;8.954;2023-06-10T07:28:24;9.67;;;6.80;;
2598;SDS011;1309;48.810;8.954;2023-06-10T07:30:57;8.57;;;5.70;;
2598;SDS011;1309;48.810;8.954;2023-06-10T07:33:26;7.97;;;6.50;;
2598;SDS011;1309;48.810;8.954;2023-06-10T07:35:54;9.70;;;5.80;;
2598;SDS011;1309;48.810;8.954;2023-06-10T07:38:22;9.13;;;6.10;;
2598;SDS011;1309;48.810;8.954;2023-06-10T07:40:51;11.17;;;6.80;;
2598;SDS011;1309;48.810;8.954;2023-06-10T07:43:19;8.60;;;6.70;;
2598;SDS011;1309;48.810;8.954;2023-06-10T07:45:51;10.83;;;7.67;;
2598;SDS011;1309;48.810;8.954;2023-06-10T07:48:19;10.80;;;6.60;;
2598;SDS011;1309;48.810;8.954;2023-06-10T07:50:48;8.13;;;5.20;;
2598;SDS011;1309;48.810;8.954;2023-06-10T07:53:16;9.57;;;6.40;;
2598;SDS011;1309;48.810;8.954;2023-06-10T07:55:49;7.83;;;5.67;;
2598;SDS011;1309;48.810;8.954;2023-06-10T07:58:17;8.00;;;5.73;;
2598;SDS011;1309;48.810;8.954;2023-06-10T08:00:46;9.00;;;5.10;;
2598;SDS011;1309;48.810;8.954;2023-06-10T08:03:16;7.97;;;6.30;;
2598;SDS011;1309;48.810;8.954;2023-06-10T08:05:44;9.47;;;6.13;;
2598;SDS011;1309;48.810;8.954;2023-06-10T08:08:15;10.23;;;6.53;;
2598;SDS011;1309;48.810;8.954;2023-06-10T08:10:43;7.77;;;6.10;;
2598;SDS011;1309;48.810;8.954;2023-06-10T08:13:11;11.07;;;6.33;;
2598;SDS011;1309;48.810;8.954;2023-06-10T08:15:42;10.93;;;6.60;;
2598;SDS011;1309;48.810;8.954;2023-06-10T08:18:10;9.27;;;6.57;;
2598;SDS011;1309;48.810;8.954;2023-06-10T08:20:48;10.00;;;7.60;;
2598;SDS011;1309;48.810;8.954;2023-06-10T08:23:23;10.17;;;7.30;;
2598;SDS011;1309;48.810;8.954;2023-06-10T08:25:55;10.23;;;7.17;;
2598;SDS011;1309;48.810;8.954;2023-06-10T08:28:31;11.53;;;8.13;;
2598;SDS011;1309;48.810;8.954;2023-06-10T08:31:04;9.30;;;7.00;;
2598;SDS011;1309;48.810;8.954;2023-06-10T08:33:35;9.47;;;6.87;;
2598;SDS011;1309;48.810;8.954;2023-06-10T08:36:05;12.97;;;7.40;;
2598;SDS011;1309;48.810;8.954;2023-06-10T08:38:39;12.47;;;7.40;;
2598;SDS011;1309;48.810;8.954;2023-06-10T08:41:08;10.97;;;6.80;;
2598;SDS011;1309;48.810;8.954;2023-06-10T08:43:38;8.57;;;6.67;;
2598;SDS011;1309;48.810;8.954;2023-06-10T08:46:11;9.40;;;7.07;;
2598;SDS011;1309;48.810;8.954;2023-06-10T08:48:41;12.80;;;7.07;;
2598;SDS011;1309;48.810;8.954;2023-06-10T08:51:14;10.50;;;7.13;;
2598;SDS011;1309;48.810;8.954;2023-06-10T08:53:46;9.07;;;6.60;;
2598;SDS011;1309;48.810;8.954;2023-06-10T08:56:18;6.80;;;5.80;;
2598;SDS011;1309;48.810;8.954;2023-06-10T08:58:46;10.23;;;6.67;;
2598;SDS011;1309;48.810;8.954;2023-06-10T09:01:16;12.90;;;7.43;;
2598;SDS011;1309;48.810;8.954;2023-06-10T09:03:48;9.97;;;6.63;;
2598;SDS011;1309;48.810;8.954;2023-06-10T09:06:16;8.70;;;5.90;;
2598;SDS011;1309;48.810;8.954;2023-06-10T09:08:52;9.20;;;6.73;;
2598;SDS011;1309;48.810;8.954;2023-06-10T09:11:21;9.37;;;6.40;;
2598;SDS011;1309;48.810;8.954;2023-06-10T09:13:54;8.47;;;6.20;;
2598;SDS011;1309;48.810;8.954;2023-06-10T09:16:23;12.80;;;6.10;;
2598;SDS011;1309;48.810;8.954;2023-06-10T09:18:58;10.90;;;6.80;;
2598;SDS011;1309;48.810;8.954;2023-06-10T09:21:26;9.30;;;7.03;;
2598;SDS011;1309;48.810;8.954;2023-06-10T09:23:56;11.97;;;6.43;;
2598;SDS011;1309;48.810;8.954;2023-06-10T09:26:27;11.50;;;7.10;;
2598;SDS011;1309;48.810;8.954;2023-06-10T09:29:04;10.40;;;8.33;;
2598;SDS011;1309;48.810;8.954;2023-06-10T09:31:34;9.33;;;7.23;;
2598;SDS011;1309;48.810;8.954;2023-06-10T09:34:06;11.83;;;7.67;;
2598;SDS011;1309;48.810;8.954;2023-06-10T09:36:35;11.60;;;7.23;;
2598;SDS011;1309;48.810;8.954;2023-06-10T09:39:14;7.77;;;5.77;;
2598;SDS011;1309;48.810;8.954;2023-06-10T09:41:45;10.30;;;6.33;;
2598;SDS011;1309;48.810;8.954;2023-06-10T09:44:13;9.70;;;7.30;;
2598;SDS011;1309;48.810;8.954;2023-06-10T09:46:43;11.90;;;6.47;;
2598;SDS011;1309;48.810;8.954;2023-06-10T09:49:13;12.90;;;7.40;;
2598;SDS011;1309;48.810;8.954;2023-06-10T09:51:48;9.50;;;7.03;;
2598;SDS011;1309;48.810;8.954;2023-06-10T09:54:19;8.57;;;6.63;;
2598;SDS011;1309;48.810;8.954;2023-06-10T09:56:48;10.50;;;7.40;;
2598;SDS011;1309;48.810;8.954;2023-06-10T09:59:27;8.67;;;7.37;;
2598;SDS011;1309;48.810;8.954;2023-06-10T10:01:58;10.83;;;7.37;;
2598;SDS011;1309;48.810;8.954;2023-06-10T10:04:37;10.00;;;7.53;;
2598;SDS011;1309;48.810;8.954;2023-06-10T10:07:04;11.03;;;7.23;;
2598;SDS011;1309;48.810;8.954;2023-06-10T10:09:36;10.80;;;7.80;;
2598;SDS011;1309;48.810;8.954;2023-06-10T10:12:07;10.60;;;7.00;;
2598;SDS011;1309;48.810;8.954;2023-06-10T10:14:38;10.05;;;6.70;;
2598;SDS011;1309;48.810;8.954;2023-06-10T10:17:07;9.50;;;6.05;;
2598;SDS011;1309;48.810;8.954;2023-06-10T10:19:46;8.02;;;6.65;;
2598;SDS011;1309;48.810;8.954;2023-06-10T10:22:19;10.27;;;6.53;;
2598;SDS011;1309;48.810;8.954;2023-06-10T10:24:52;9.90;;;8.15;;
2598;SDS011;1309;48.810;8.954;2023-06-10T10:27:24;11.00;;;7.35;;
2598;SDS011;1309;48.810;8.954;2023-06-10T10:29:54;10.05;;;7.00;;
2598;SDS011;1309;48.810;8.954;2023-06-10T10:32:26;9.90;;;7.13;;
2598;SDS011;1309;48.810;8.954;2023-06-10T10:35:02;9.27;;;6.87;;
2598;SDS011;1309;48.810;8.954;2023-06-10T10:37:38;10.23;;;7.30;;
2598;SDS011;1309;48.810;8.954;2023-06-10T10:40:08;8.95;;;6.88;;
2598;SDS011;1309;48.810;8.954;2023-06-10T10:42:36;11.02;;;7.80;;
2598;SDS011;1309;48.810;8.954;2023-06-10T10:45:06;9.10;;;7.85;;
2598;SDS011;1309;48.810;8.954;2023-06-10T10:47:38;9.43;;;7.05;;
2598;SDS011;1309;48.810;8.954;2023-06-10T10:50:16;10.35;;;7.25;;
2598;SDS011;1309;48.810;8.954;2023-06-10T10:52:54;8.68;;;6.47;;
2598;SDS011;1309;48.810;8.954;2023-06-10T10:55:27;10.32;;;6.57;;
2598;SDS011;1309;48.810;8.954;2023-06-10T10:57:56;9.63;;;6.20;;
2598;SDS011;1309;48.810;8.954;2023-06-10T11:00:28;8.52;;;6.47;;
2598;SDS011;1309;48.810;8.954;2023-06-10T11:02:58;9.13;;;6.75;;
2598;SDS011;1309;48.810;8.954;2023-06-10T11:05:37;8.57;;;6.35;;
2598;SDS011;1309;48.810;8.954;2023-06-10T11:08:07;9.50;;;7.30;;
2598;SDS011;1309;48.810;8.954;2023-06-10T11:10:41;8.35;;;6.43;;
2598;SDS011;1309;48.810;8.954;2023-06-10T11:13:20;7.68;;;6.00;;
2598;SDS011;1309;48.810;8.954;2023-06-10T11:15:52;9.05;;;6.65;;
2598;SDS011;1309;48.810;8.954;2023-06-10T11:18:20;9.52;;;6.55;;
2598;SDS011;1309;48.810;8.954;2023-06-10T11:20:53;9.15;;;6.90;;
2598;SDS011;1309;48.810;8.954;2023-06-10T11:23:33;8.45;;;6.97;;
2598;SDS011;1309;48.810;8.954;2023-06-10T11:26:15;9.60;;;6.60;;
2598;SDS011;1309;48.810;8.954;2023-06-10T11:31:44;10.55;;;7.05;;
2598;SDS011;1309;48.810;8.954;2023-06-10T11:34:21;7.97;;;6.05;;
2598;SDS011;1309;48.810;8.954;2023-06-10T11:36:51;8.88;;;6.60;;
2598;SDS011;1309;48.810;8.954;2023-06-10T11:39:31;8.40;;;6.30;;
2598;SDS011;1309;48.810;8.954;2023-06-10T11:42:04;8.30;;;6.65;;
2598;SDS011;1309;48.810;8.954;2023-06-10T11:44:33;8.88;;;6.00;;
2598;SDS011;1309;48.810;8.954;2023-06-10T11:47:04;9.45;;;6.15;;
2598;SDS011;1309;48.810;8.954;2023-06-10T11:49:38;9.23;;;6.47;;
2598;SDS011;1309;48.810;8.954;2023-06-10T11:52:09;9.02;;;6.30;;
2598;SDS011;1309;48.810;8.954;2023-06-10T11:54:59;7.85;;;6.18;;
2598;SDS011;1309;48.810;8.954;2023-06-10T11:57:35;10.98;;;6.32;;
2598;SDS011;1309;48.810;8.954;2023-06-10T12:00:04;9.43;;;6.57;;
2598;SDS011;1309;48.810;8.954;2023-06-10T12:02:35;8.63;;;6.28;;
2598;SDS011;1309;48.810;8.954;2023-06-10T12:05:10;8.02;;;5.97;;
2598;SDS011;1309;48.810;8.954;2023-06-10T12:07:38;7.65;;;5.63;;
2598;SDS011;1309;48.810;8.954;2023-06-10T12:10:07;7.88;;;5.85;;
2598;SDS011;1309;48.810;8.954;2023-06-10T12:12:53;7.03;;;5.93;;
2598;SDS011;1309;48.810;8.954;2023-06-10T12:15:25;9.80;;;6.28;;
2598;SDS011;1309;48.810;8.954;2023-06-10T12:17:56;9.35;;;6.90;;
2598;SDS011;1309;48.810;8.954;2023-06-10T12:20:29;8.27;;;6.93;;
2598;SDS011;1309;48.810;8.954;2023-06-10T12:23:07;8.43;;;6.90;;
2598;SDS011;1309;48.810;8.954;2023-06-10T12:25:37;7.88;;;5.80;;
2598;SDS011;1309;48.810;8.954;2023-06-10T12:28:09;8.73;;;6.57;;
2598;SDS011;1309;48.810;8.954;2023-06-10T12:30:38;9.15;;;5.68;;
2598;SDS011;1309;48.810;8.954;2023-06-10T12:33:09;6.38;;;5.22;;
2598;SDS011;1309;48.810;8.954;2023-06-10T12:35:46;6.53;;;5.43;;
2598;SDS011;1309;48.810;8.954;2023-06-10T12:38:25;8.98;;;7.25;;
2598;SDS011;1309;48.810;8.954;2023-06-10T12:40:54;9.25;;;6.78;;
2598;SDS011;1309;48.810;8.954;2023-06-10T12:43:33;7.82;;;6.13;;
2598;SDS011;1309;48.810;8.954;2023-06-10T12:46:09;8.35;;;5.82;;
2598;SDS011;1309;48.810;8.954;2023-06-10T12:48:48;7.03;;;5.97;;
2598;SDS011;1309;48.810;8.954;2023-06-10T12:51:17;10.57;;;6.55;;
2598;SDS011;1309;48.810;8.954;2023-06-10T12:53:50;9.13;;;6.72;;
2598;SDS011;1309;48.810;8.954;2023-06-10T12:56:19;8.05;;;6.07;;
2598;SDS011;1309;48.810;8.954;2023-06-10T12:58:53;7.90;;;6.03;;
2598;SDS011;1309;48.810;8.954;2023-06-10T13:01:21;7.25;;;6.13;;
2598;SDS011;1309;48.810;8.954;2023-06-10T13:03:50;8.35;;;6.35;;
2598;SDS011;1309;48.810;8.954;2023-06-10T13:06:22;9.63;;;5.80;;
2598;SDS011;1309;48.810;8.954;2023-06-10T13:08:50;8.25;;;6.20;;
2598;SDS011;1309;48.810;8.954;2023-06-10T13:11:19;7.53;;;6.10;;
2598;SDS011;1309;48.810;8.954;2023-06-10T13:13:53;8.55;;;6.00;;
2598;SDS011;1309;48.810;8.954;2023-06-10T13:16:25;8.20;;;6.45;;
2598;SDS011;1309;48.810;8.954;2023-06-10T13:18:53;7.78;;;6.28;;
2598;SDS011;1309;48.810;8.954;2023-06-10T13:21:28;6.68;;;5.65;;
2598;SDS011;1309;48.810;8.954;2023-06-10T13:23:56;7.40;;;5.80;;
2598;SDS011;1309;48.810;8.954;2023-06-10T13:26:24;6.97;;;4.93;;
2598;SDS011;1309;48.810;8.954;2023-06-10T13:28:55;8.23;;;6.35;;
2598;SDS011;1309;48.810;8.954;2023-06-10T13:31:23;6.40;;;5.28;;
2598;SDS011;1309;48.810;8.954;2023-06-10T13:33:57;7.80;;;5.30;;
2598;SDS011;1309;48.810;8.954;2023-06-10T13:36:26;6.88;;;4.95;;
2598;SDS011;1309;48.810;8.954;2023-06-10T13:38:53;7.40;;;5.15;;
2598;SDS011;1309;48.810;8.954;2023-06-10T13:41:22;8.20;;;5.85;;
2598;SDS011;1309;48.810;8.954;2023-06-10T13:43:53;7.20;;;4.95;;
2598;SDS011;1309;48.810;8.954;2023-06-10T13:46:25;8.05;;;6.00;;
2598;SDS011;1309;48.810;8.954;2023-06-10T13:48:55;7.97;;;6.18;;
2598;SDS011;1309;48.810;8.954;2023-06-10T13:51:28;7.47;;;4.93;;
2598;SDS011;1309;48.810;8.954;2023-06-10T13:53:56;6.60;;;5.20;;
2598;SDS011;1309;48.810;8.954;2023-06-10T13:56:33;6.93;;;5.40;;
2598;SDS011;1309;48.810;8.954;2023-06-10T13:59:06;7.30;;;5.55;;
2598;SDS011;1309;48.810;8.954;2023-06-10T14:01:34;7.28;;;5.18;;
2598;SDS011;1309;48.810;8.954;2023-06-10T14:04:02;8.13;;;5.28;;
2598;SDS011;1309;48.810;8.954;2023-06-10T14:06:40;6.25;;;5.05;;
2598;SDS011;1309;48.810;8.954;2023-06-10T14:09:12;6.78;;;4.80;;
2598;SDS011;1309;48.810;8.954;2023-06-10T14:11:45;8.10;;;5.05;;
2598;SDS011;1309;48.810;8.954;2023-06-10T14:14:15;6.50;;;5.45;;
2598;SDS011;1309;48.810;8.954;2023-06-10T14:16:43;7.32;;;5.38;;
2598;SDS011;1309;48.810;8.954;2023-06-10T14:19:14;6.25;;;4.68;;
2598;SDS011;1309;48.810;8.954;2023-06-10T14:21:43;7.57;;;6.35;;
2598;SDS011;1309;48.810;8.954;2023-06-10T14:24:11;7.30;;;5.03;;
2598;SDS011;1309;48.810;8.954;2023-06-10T14:26:42;8.68;;;5.68;;
2598;SDS011;1309;48.810;8.954;2023-06-10T14:29:10;6.03;;;5.22;;
2598;SDS011;1309;48.810;8.954;2023-06-10T14:31:42;7.05;;;5.93;;
2598;SDS011;1309;48.810;8.954;2023-06-10T14:34:10;7.05;;;5.32;;
2598;SDS011;1309;48.810;8.954;2023-06-10T14:36:40;7.00;;;5.32;;
2598;SDS011;1309;48.810;8.954;2023-06-10T14:39:08;7.13;;;5.75;;
2598;SDS011;1309;48.810;8.954;2023-06-10T14:41:37;5.40;;;4.75;;
2598;SDS011;1309;48.810;8.954;2023-06-10T14:44:08;7.18;;;5.50;;
2598;SDS011;1309;48.810;8.954;2023-06-10T14:46:36;8.13;;;5.85;;
2598;SDS011;1309;48.810;8.954;2023-06-10T14:49:10;7.97;;;5.60;;
2598;SDS011;1309;48.810;8.954;2023-06-10T14:51:44;7.32;;;5.18;;
2598;SDS011;1309;48.810;8.954;2023-06-10T14:54:13;7.60;;;4.90;;
2598;SDS011;1309;48.810;8.954;2023-06-10T14:56:41;7.05;;;5.53;;
2598;SDS011;1309;48.810;8.954;2023-06-10T14:59:09;7.90;;;5.40;;
2598;SDS011;1309;48.810;8.954;2023-06-10T15:01:47;7.65;;;5.97;;
2598;SDS011;1309;48.810;8.954;2023-06-10T15:04:16;7.38;;;6.05;;
2598;SDS011;1309;48.810;8.954;2023-06-10T15:06:50;7.45;;;5.55;;
2598;SDS011;1309;48.810;8.954;2023-06-10T15:09:20;7.47;;;5.60;;
2598;SDS011;1309;48.810;8.954;2023-06-10T15:11:50;6.90;;;5.60;;
2598;SDS011;1309;48.810;8.954;2023-06-10T15:14:21;7.60;;;5.30;;
2598;SDS011;1309;48.810;8.954;2023-06-10T15:16:49;8.35;;;6.00;;
2598;SDS011;1309;48.810;8.954;2023-06-10T15:19:18;6.80;;;5.10;;
2598;SDS011;1309;48.810;8.954;2023-06-10T15:21:46;8.98;;;5.68;;
2598;SDS011;1309;48.810;8.954;2023-06-10T15:24:14;5.63;;;4.78;;
2598;SDS011;1309;48.810;8.954;2023-06-10T15:26:43;8.13;;;5.95;;
2598;SDS011;1309;48.810;8.954;2023-06-10T15:29:11;5.53;;;4.95;;
2598;SDS011;1309;48.810;8.954;2023-06-10T15:31:39;7.68;;;5.68;;
2598;SDS011;1309;48.810;8.954;2023-06-10T15:34:07;8.70;;;5.90;;
2598;SDS011;1309;48.810;8.954;2023-06-10T15:36:37;7.10;;;5.75;;
2598;SDS011;1309;48.810;8.954;2023-06-10T15:39:06;6.93;;;5.65;;